Time;durP1;ratioP1;P1;durP2;ratioP2;P2;SDS_P1;SDS_P2;PMS_P1;PMS_P2;Temp;Humidity;BMP_temperature;BMP_pressure;BME280_temperature;BME280_humidity;BME280_pressure;Samples;Min_cycle;Max_cycle;Signal;HPM_P1;HPM_P2
2023/10/30 00:00:51;;;;;;;5.90;2.10;;;;;;;9.89;63.04;101276.02;107603;1253;111456;-60
2023/10/30 00:03:37;;;;;;;6.00;2.40;;;;;;;9.91;63.19;101277.86;107609;1251;109111;-59
2023/10/30 00:06:06;;;;;;;5.60;2.30;;;;;;;9.92;63.68;101273.13;107580;1251;108131;-60
2023/10/30 00:08:35;;;;;;;8.10;2.70;;;;;;;9.86;63.87;101272.65;107595;1249;97851;-59
2023/10/30 00:11:03;;;;;;;8.90;2.00;;;;;;;9.84;63.68;101280.86;107565;1251;98611;-61
2023/10/30 00:13:31;;;;;;;7.50;2.70;;;;;;;9.84;63.88;101272.63;107477;1257;111825;-60
2023/10/30 00:15:59;;;;;;;8.00;2.70;;;;;;;9.85;63.82;101276.91;107586;1255;109150;-59
2023/10/30 00:18:28;;;;;;;9.90;2.60;;;;;;;9.86;63.88;101278.35;107604;1251;108642;-60
2023/10/30 00:20:56;;;;;;;7.20;2.70;;;;;;;9.87;63.73;101281.21;107583;1253;97855;-59
2023/10/30 00:23:26;;;;;;;13.50;3.40;;;;;;;9.87;63.69;101286.23;107633;1249;98385;-58
2023/10/30 00:25:55;;;;;;;11.70;3.10;;;;;;;9.87;63.68;101281.91;107594;1251;111347;-58
2023/10/30 00:28:23;;;;;;;11.60;2.90;;;;;;;9.89;63.73;101275.32;107589;1252;109434;-58
2023/10/30 00:30:53;;;;;;;5.80;2.40;;;;;;;9.92;63.77;101275.13;107589;1251;107913;-59
2023/10/30 00:33:22;;;;;;;6.20;2.70;;;;;;;9.94;63.79;101274.26;107557;1251;97941;-59
2023/10/30 00:35:50;;;;;;;6.70;2.80;;;;;;;9.94;63.74;101277.64;107610;1251;97870;-59
2023/10/30 00:38:18;;;;;;;11.30;2.40;;;;;;;9.95;63.81;101279.36;107569;1253;112160;-60
2023/10/30 00:40:47;;;;;;;7.70;2.70;;;;;;;9.95;63.70;101281.46;107449;1253;109325;-59
2023/10/30 00:43:15;;;;;;;7.90;3.20;;;;;;;9.95;63.69;101279.16;107547;1252;108448;-59
2023/10/30 00:45:45;;;;;;;8.90;2.90;;;;;;;9.94;63.69;101279.07;107653;1251;97835;-59
2023/10/30 00:48:13;;;;;;;6.50;2.50;;;;;;;9.92;63.72;101275.64;107584;1251;97723;-61
2023/10/30 00:50:42;;;;;;;9.20;2.10;;;;;;;9.88;63.49;101271.12;107560;1251;110614;-60
2023/10/30 00:53:10;;;;;;;8.80;3.10;;;;;;;9.78;63.53;101275.98;107503;1257;108718;-60
2023/10/30 00:55:40;;;;;;;17.00;3.10;;;;;;;9.72;63.60;101277.17;107538;1254;108574;-59
2023/10/30 00:58:08;;;;;;;14.30;3.30;;;;;;;9.69;63.61;101276.64;107646;1252;97712;-58
2023/10/30 01:00:36;;;;;;;9.10;2.90;;;;;;;9.66;63.66;101273.15;107564;1251;97823;-60
2023/10/30 01:03:05;;;;;;;23.50;3.10;;;;;;;9.63;63.55;101274.30;107509;1253;112005;-60
2023/10/30 01:05:34;;;;;;;12.30;3.50;;;;;;;9.57;63.52;101271.11;107599;1251;109999;-60
2023/10/30 01:08:08;;;;;;;5.30;2.60;;;;;;;9.51;63.44;101275.17;107607;1253;107103;-59
2023/10/30 01:10:36;;;;;;;;;;;;;;;9.42;63.74;101283.51;107527;1253;97848;-57
2023/10/30 01:13:05;;;;;;;7.30;2.60;;;;;;;9.31;64.68;101273.99;107660;1255;97929;-59
2023/10/30 01:15:34;;;;;;;6.10;2.40;;;;;;;9.15;64.32;101273.76;107561;1253;111114;-61
2023/10/30 01:18:02;;;;;;;8.40;2.60;;;;;;;9.05;64.58;101270.38;107588;1252;109102;-59
2023/10/30 01:20:37;;;;;;;11.50;3.40;;;;;;;9.00;64.53;101263.03;107585;1253;107745;-59
2023/10/30 01:23:05;;;;;;;7.00;2.60;;;;;;;8.97;64.67;101260.40;107647;1251;97848;-61
2023/10/30 01:25:33;;;;;;;8.90;3.10;;;;;;;8.95;64.71;101265.52;107644;1251;97867;-60
2023/10/30 01:28:01;;;;;;;7.60;2.90;;;;;;;8.91;64.56;101264.02;107615;1255;111930;-60
2023/10/30 01:30:30;;;;;;;8.30;2.80;;;;;;;8.90;64.49;101267.70;107606;1253;109715;-58
2023/10/30 01:32:59;;;;;;;7.80;3.00;;;;;;;8.88;64.46;101267.67;107540;1255;108571;-60
2023/10/30 01:35:28;;;;;;;5.80;2.60;;;;;;;8.85;64.74;101260.18;107585;1253;97768;-60
2023/10/30 01:37:56;;;;;;;10.00;3.20;;;;;;;8.80;64.96;101262.00;107550;1250;98380;-59
2023/10/30 01:40:25;;;;;;;8.10;3.40;;;;;;;8.75;65.00;101259.82;107630;1251;112483;-59
2023/10/30 01:42:55;;;;;;;5.90;2.70;;;;;;;8.75;65.03;101265.91;107578;1251;109696;-59
2023/10/30 01:45:23;;;;;;;10.70;2.80;;;;;;;8.75;65.30;101263.96;107534;1253;107175;-59
2023/10/30 01:47:52;;;;;;;9.60;2.70;;;;;;;8.76;65.42;101260.65;107438;1253;97888;-60
2023/10/30 01:50:23;;;;;;;6.30;3.40;;;;;;;8.79;65.52;101258.48;107437;1252;98381;-59
2023/10/30 01:52:52;;;;;;;10.00;3.10;;;;;;;8.83;65.73;101264.66;107608;1251;111696;-58
2023/10/30 01:55:21;;;;;;;16.10;2.60;;;;;;;8.86;65.83;101264.27;107613;1251;109955;-59
2023/10/30 01:57:50;;;;;;;6.20;2.70;;;;;;;8.87;65.74;101263.65;107590;1253;108330;-58
2023/10/30 02:00:19;;;;;;;6.80;2.30;;;;;;;8.88;65.94;101270.17;107575;1256;97949;-60
2023/10/30 02:02:50;;;;;;;7.70;2.60;;;;;;;8.89;66.08;101267.57;107583;1253;98324;-59
2023/10/30 02:05:18;;;;;;;7.70;2.20;;;;;;;8.86;65.78;101273.73;107603;1255;111750;-59
2023/10/30 02:07:47;;;;;;;5.60;2.30;;;;;;;8.84;65.66;101273.16;107607;1251;109597;-60
2023/10/30 02:10:15;;;;;;;10.10;2.20;;;;;;;8.83;65.88;101273.24;107623;1252;108268;-60
2023/10/30 02:12:49;;;;;;;7.20;2.60;;;;;;;8.81;66.43;101274.83;107577;1253;97706;-60
2023/10/30 02:15:18;;;;;;;6.30;2.80;;;;;;;8.78;66.52;101273.21;107592;1253;98403;-59
2023/10/30 02:17:46;;;;;;;9.60;2.80;;;;;;;8.79;66.29;101277.84;107586;1251;111648;-59
2023/10/30 02:20:15;;;;;;;7.80;2.40;;;;;;;8.81;66.27;101279.98;107591;1253;109987;-59
2023/10/30 02:22:43;;;;;;;9.30;3.10;;;;;;;8.85;66.20;101281.88;107605;1251;108561;-60
2023/10/30 02:25:12;;;;;;;9.90;2.90;;;;;;;8.85;66.22;101282.72;107612;1254;97911;-59
2023/10/30 02:27:40;;;;;;;11.90;2.60;;;;;;;8.86;66.02;101281.60;107515;1253;98351;-60
2023/10/30 02:30:11;;;;;;;11.20;3.10;;;;;;;8.83;65.85;101280.02;107467;1253;110598;-60
2023/10/30 02:32:42;;;;;;;16.90;3.10;;;;;;;8.81;65.76;101276.03;107672;1253;109701;-60
2023/10/30 02:35:17;;;;;;;8.90;2.90;;;;;;;8.82;65.77;101274.52;107613;1255;106995;-60
2023/10/30 02:37:47;;;;;;;9.40;2.50;;;;;;;8.83;65.75;101281.44;107554;1251;97764;-59
2023/10/30 02:40:16;;;;;;;11.90;2.70;;;;;;;8.85;65.85;101285.03;107454;1253;97770;-62
2023/10/30 02:42:45;;;;;;;7.10;2.40;;;;;;;8.87;65.66;101287.27;107547;1253;111996;-62
2023/10/30 02:45:13;;;;;;;10.90;2.90;;;;;;;8.86;65.56;101286.26;107543;1251;108867;-60
2023/10/30 02:47:42;;;;;;;6.50;2.20;;;;;;;8.82;65.42;101288.30;107675;1255;106971;-63
2023/10/30 02:50:10;;;;;;;8.30;2.50;;;;;;;8.80;65.43;101286.72;107531;1251;97928;-61
2023/10/30 02:52:38;;;;;;;8.60;2.30;;;;;;;8.78;65.53;101284.52;107565;1256;97714;-61
2023/10/30 02:55:09;;;;;;;9.50;2.70;;;;;;;8.75;65.48;101281.63;107601;1251;110873;-61
2023/10/30 02:57:37;;;;;;;9.60;2.50;;;;;;;8.74;65.44;101282.78;107609;1251;108530;-62
2023/10/30 03:00:07;;;;;;;10.50;3.00;;;;;;;8.71;65.66;101282.83;107588;1254;108240;-62
2023/10/30 03:02:35;;;;;;;13.30;3.40;;;;;;;8.67;65.64;101282.95;107500;1253;97962;-62
2023/10/30 03:05:05;;;;;;;14.10;3.50;;;;;;;8.65;65.48;101287.45;107537;1255;97819;-62
2023/10/30 03:07:33;;;;;;;12.90;2.70;;;;;;;8.63;65.77;101284.17;107469;1252;112209;-61
2023/10/30 03:10:02;;;;;;;11.40;2.90;;;;;;;8.63;65.74;101283.09;107501;1253;109081;-61
2023/10/30 03:12:30;;;;;;;9.40;2.70;;;;;;;8.63;65.87;101286.30;107512;1253;108230;-62
2023/10/30 03:14:58;;;;;;;7.10;2.90;;;;;;;8.60;65.95;101280.40;107598;1253;97844;-61
2023/10/30 03:17:27;;;;;;;14.20;5.40;;;;;;;8.57;65.98;101282.26;107579;1252;97825;-62
2023/10/30 03:19:55;;;;;;;9.70;3.20;;;;;;;8.53;65.79;101281.27;107627;1253;111853;-62
2023/10/30 03:22:24;;;;;;;11.20;2.80;;;;;;;8.46;65.68;101284.41;107582;1251;109734;-62
2023/10/30 03:24:52;;;;;;;5.20;2.60;;;;;;;8.40;65.83;101286.11;107563;1253;108187;-62
2023/10/30 03:27:20;;;;;;;9.90;2.40;;;;;;;8.36;65.95;101282.45;107568;1253;97839;-63
2023/10/30 03:29:49;;;;;;;16.20;2.90;;;;;;;8.33;65.94;101286.93;107536;1252;97839;-62
2023/10/30 03:32:17;;;;;;;10.10;2.70;;;;;;;8.31;66.00;101281.60;107596;1252;111069;-63
2023/10/30 03:34:45;;;;;;;12.00;3.40;;;;;;;8.25;67.02;101288.73;107644;1251;109484;-62
2023/10/30 03:37:14;;;;;;;10.10;2.80;;;;;;;8.13;67.92;101289.25;107596;1251;108200;-60
2023/10/30 03:39:42;;;;;;;9.90;3.10;;;;;;;8.03;67.84;101294.25;107545;1252;97846;-60
2023/10/30 03:42:10;;;;;;;7.30;3.30;;;;;;;7.99;67.79;101289.69;107558;1251;97732;-64
2023/10/30 03:44:39;;;;;;;10.40;2.70;;;;;;;7.99;67.69;101283.98;107602;1253;111949;-61
2023/10/30 03:47:07;;;;;;;11.10;2.90;;;;;;;7.99;67.70;101282.14;107597;1251;109251;-62
2023/10/30 03:49:35;;;;;;;11.10;3.20;;;;;;;7.99;67.50;101285.92;107555;1256;108245;-62
2023/10/30 03:52:04;;;;;;;12.00;3.40;;;;;;;7.99;67.46;101286.27;107448;1253;97893;-62
2023/10/30 03:54:33;;;;;;;14.30;3.30;;;;;;;7.98;67.46;101285.08;107607;1251;97845;-62
2023/10/30 03:57:01;;;;;;;9.10;3.20;;;;;;;7.96;67.19;101275.98;107678;1253;111952;-62
2023/10/30 03:59:29;;;;;;;7.50;3.90;;;;;;;7.92;67.28;101270.33;107648;1251;109754;-61
2023/10/30 04:01:57;;;;;;;14.30;3.20;;;;;;;7.90;67.14;101267.83;107594;1251;107548;-61
2023/10/30 04:04:25;;;;;;;12.20;3.60;;;;;;;7.87;67.07;101263.72;107506;1253;97848;-62
2023/10/30 04:06:53;;;;;;;14.50;3.50;;;;;;;7.86;67.16;101263.44;107603;1251;97805;-60
2023/10/30 04:09:22;;;;;;;10.60;3.10;;;;;;;7.84;67.34;101263.52;107539;1253;111376;-62
2023/10/30 04:11:50;;;;;;;12.80;4.00;;;;;;;7.81;67.18;101260.86;107582;1253;109813;-61
2023/10/30 04:14:18;;;;;;;19.20;3.80;;;;;;;7.81;67.24;101256.45;107573;1253;108759;-61
2023/10/30 04:16:47;;;;;;;14.50;3.70;;;;;;;7.79;67.09;101252.63;107597;1255;97835;-61
2023/10/30 04:19:15;;;;;;;17.40;3.20;;;;;;;7.78;67.27;101253.27;107605;1252;98776;-61
2023/10/30 04:21:44;;;;;;;13.60;3.00;;;;;;;7.76;67.46;101252.48;107518;1253;111355;-62
2023/10/30 04:24:12;;;;;;;16.20;3.50;;;;;;;7.76;67.71;101253.75;107585;1253;108700;-62
2023/10/30 04:26:41;;;;;;;22.20;3.80;;;;;;;7.76;67.64;101261.25;107514;1255;108184;-61
2023/10/30 04:29:09;;;;;;;25.30;3.30;;;;;;;7.72;67.52;101268.67;107616;1250;97710;-63
2023/10/30 04:31:37;;;;;;;13.50;3.00;;;;;;;7.71;67.70;101265.20;107539;1252;97701;-62
2023/10/30 04:34:06;;;;;;;21.90;3.60;;;;;;;7.69;67.59;101260.11;107601;1253;111548;-61
2023/10/30 04:36:34;;;;;;;18.70;3.90;;;;;;;7.67;67.70;101250.21;107601;1251;109089;-61
2023/10/30 04:39:08;;;;;;;11.40;3.00;;;;;;;7.67;67.73;101253.42;107645;1251;108191;-62
2023/10/30 04:41:37;;;;;;;8.70;2.80;;;;;;;7.68;67.81;101248.77;107558;1253;97923;-60
2023/10/30 04:44:06;;;;;;;23.90;4.80;;;;;;;7.72;67.98;101250.08;107571;1251;98395;-62
2023/10/30 04:46:34;;;;;;;14.00;3.60;;;;;;;7.77;68.18;101247.62;107486;1253;111312;-59
2023/10/30 04:49:03;;;;;;;9.20;3.40;;;;;;;7.75;67.92;101248.27;107561;1253;109873;-61
2023/10/30 04:51:31;;;;;;;13.50;6.20;;;;;;;7.73;67.81;101254.52;107515;1253;107628;-61
2023/10/30 04:54:00;;;;;;;17.70;5.90;;;;;;;7.71;68.01;101255.34;107556;1253;97868;-61
2023/10/30 04:56:28;;;;;;;26.30;5.30;;;;;;;7.73;68.29;101253.63;107526;1253;97727;-60
2023/10/30 04:58:57;;;;;;;24.10;4.40;;;;;;;7.73;68.40;101247.55;107577;1253;110693;-59
2023/10/30 05:01:26;;;;;;;15.80;3.90;;;;;;;7.76;68.60;101246.30;107602;1251;109086;-62
2023/10/30 05:03:54;;;;;;;33.00;12.20;;;;;;;7.80;68.63;101248.83;107630;1253;107749;-63
2023/10/30 05:06:23;;;;;;;22.30;4.80;;;;;;;7.83;68.66;101248.80;107533;1253;97966;-61
2023/10/30 05:08:51;;;;;;;30.60;14.70;;;;;;;7.85;68.63;101249.01;107544;1253;97742;-60
2023/10/30 05:11:19;;;;;;;21.30;4.60;;;;;;;7.84;68.88;101251.92;107587;1253;112619;-60
2023/10/30 05:13:47;;;;;;;24.20;4.20;;;;;;;7.79;69.60;101260.66;107572;1255;109830;-61
2023/10/30 05:16:15;;;;;;;16.70;4.20;;;;;;;7.76;69.79;101265.69;107456;1253;107334;-61
2023/10/30 05:18:43;;;;;;;27.50;5.40;;;;;;;7.74;70.11;101282.79;107575;1251;97711;-62
2023/10/30 05:21:12;;;;;;;11.70;3.60;;;;;;;7.74;69.88;101288.00;107555;1254;97913;-61
2023/10/30 05:23:42;;;;;;;18.70;4.40;;;;;;;7.75;69.81;101286.86;107532;1253;110933;-61
2023/10/30 05:26:10;;;;;;;20.90;4.60;;;;;;;7.77;70.01;101286.70;107650;1253;109809;-61
2023/10/30 05:28:39;;;;;;;19.80;3.80;;;;;;;7.82;70.15;101287.77;107554;1253;108402;-62
2023/10/30 05:31:07;;;;;;;21.30;7.40;;;;;;;7.91;70.39;101295.05;107586;1251;97909;-60
2023/10/30 05:33:36;;;;;;;9.40;4.70;;;;;;;7.99;70.87;101300.56;107639;1253;97706;-62
2023/10/30 05:36:05;;;;;;;8.70;3.60;;;;;;;8.07;71.19;101300.08;107541;1253;111575;-60
2023/10/30 05:38:33;;;;;;;8.30;3.30;;;;;;;8.11;70.91;101299.02;107605;1251;108021;-61
2023/10/30 05:41:01;;;;;;;7.00;2.70;;;;;;;8.20;70.69;101298.92;107612;1253;107119;-61
2023/10/30 05:43:30;;;;;;;9.40;3.70;;;;;;;8.28;70.81;101303.89;107608;1255;97894;-62
2023/10/30 05:45:58;;;;;;;13.40;4.40;;;;;;;8.38;70.60;101307.89;107611;1251;98543;-60
2023/10/30 05:48:26;;;;;;;13.10;5.10;;;;;;;8.51;70.64;101316.46;107508;1254;112327;-61
2023/10/30 05:50:55;;;;;;;8.40;2.90;;;;;;;8.63;70.71;101305.27;107612;1253;110687;-60
2023/10/30 05:53:24;;;;;;;16.70;4.00;;;;;;;8.70;70.93;101308.15;107599;1251;108613;-60
2023/10/30 05:55:52;;;;;;;12.80;3.30;;;;;;;8.82;70.59;101316.58;107579;1251;98552;-60
2023/10/30 05:58:20;;;;;;;10.20;3.40;;;;;;;8.99;70.62;101320.21;107551;1254;97831;-60
2023/10/30 06:00:50;;;;;;;20.80;3.50;;;;;;;9.13;70.61;101314.73;107563;1253;110991;-62
2023/10/30 06:03:19;;;;;;;11.70;3.40;;;;;;;9.27;70.60;101321.91;107524;1254;109878;-61
2023/10/30 06:05:48;;;;;;;25.50;4.20;;;;;;;9.39;70.46;101319.96;107586;1256;108510;-62
2023/10/30 06:08:18;;;;;;;22.20;3.70;;;;;;;9.50;70.35;101324.66;107598;1251;97972;-61
2023/10/30 06:10:46;;;;;;;14.60;4.50;;;;;;;9.60;70.25;101323.73;107571;1253;97856;-61
2023/10/30 06:13:15;;;;;;;25.10;4.40;;;;;;;9.73;70.05;101324.59;107555;1253;112000;-60
2023/10/30 06:15:43;;;;;;;13.50;3.40;;;;;;;9.84;70.08;101323.54;107536;1253;109062;-61
2023/10/30 06:18:11;;;;;;;23.30;3.80;;;;;;;9.93;69.67;101328.20;107559;1253;108300;-61
2023/10/30 06:20:40;;;;;;;29.50;3.80;;;;;;;10.03;69.48;101329.06;107543;1254;97830;-59
2023/10/30 06:23:08;;;;;;;21.90;4.40;;;;;;;10.14;69.38;101327.48;107575;1251;97848;-60
2023/10/30 06:25:39;;;;;;;14.60;4.00;;;;;;;10.24;69.19;101327.98;107552;1254;111144;-61
2023/10/30 06:28:10;;;;;;;14.20;3.80;;;;;;;10.32;68.96;101327.70;107559;1253;109297;-61
2023/10/30 06:30:39;;;;;;;15.30;3.60;;;;;;;10.40;68.71;101327.88;107537;1253;107352;-60
2023/10/30 06:33:08;;;;;;;19.10;4.00;;;;;;;10.45;68.43;101327.27;107484;1255;97912;-61
2023/10/30 06:35:36;;;;;;;20.70;3.70;;;;;;;10.49;68.23;101323.88;107533;1251;98406;-60
2023/10/30 06:38:05;;;;;;;17.70;4.20;;;;;;;10.55;68.00;101315.76;107487;1251;112259;-60
2023/10/30 06:40:33;;;;;;;14.70;4.90;;;;;;;10.59;67.76;101309.30;107492;1256;108912;-60
2023/10/30 06:43:04;;;;;;;16.40;5.40;;;;;;;10.66;67.69;101307.48;107449;1253;108209;-61
2023/10/30 06:45:33;;;;;;;39.60;5.70;;;;;;;10.73;67.59;101304.77;107471;1256;97844;-61
2023/10/30 06:48:01;;;;;;;19.60;5.20;;;;;;;10.78;67.41;101304.17;107528;1251;97778;-62
2023/10/30 06:50:30;;;;;;;14.20;5.30;;;;;;;10.84;66.97;101300.71;107547;1254;111991;-60
2023/10/30 06:52:58;;;;;;;22.60;6.70;;;;;;;10.89;66.73;101299.04;107392;1255;109817;-61
2023/10/30 06:55:27;;;;;;;33.00;7.60;;;;;;;10.93;66.53;101294.52;107471;1250;108711;-62
2023/10/30 06:57:55;;;;;;;27.00;7.80;;;;;;;10.98;66.42;101293.16;107437;1253;97796;-62
2023/10/30 07:00:24;;;;;;;27.90;8.20;;;;;;;11.01;66.43;101296.39;107489;1251;98450;-62
2023/10/30 07:02:52;;;;;;;25.00;6.90;;;;;;;11.10;66.33;101295.89;107529;1251;111113;-61
2023/10/30 07:05:20;;;;;;;23.40;6.20;;;;;;;11.18;66.27;101295.36;107437;1253;109752;-62
2023/10/30 07:07:49;;;;;;;17.60;6.80;;;;;;;11.29;66.13;101291.41;107433;1255;108627;-61
2023/10/30 07:10:17;;;;;;;18.40;5.90;;;;;;;11.40;65.98;101297.14;107453;1254;97725;-61
2023/10/30 07:12:46;;;;;;;30.40;7.80;;;;;;;11.51;65.80;101290.01;107362;1257;98357;-62
2023/10/30 07:15:14;;;;;;;22.90;5.90;;;;;;;11.63;65.45;101286.43;107454;1255;112322;-61
2023/10/30 07:17:43;;;;;;;30.10;6.00;;;;;;;11.79;65.27;101283.87;107480;1256;109781;-63
2023/10/30 07:20:12;;;;;;;21.50;6.10;;;;;;;11.95;65.24;101288.10;107548;1253;107843;-61
2023/10/30 07:22:40;;;;;;;18.80;7.20;;;;;;;12.11;65.12;101291.55;107483;1254;97842;-62
2023/10/30 07:25:08;;;;;;;38.70;7.30;;;;;;;12.28;64.79;101287.88;107522;1254;98848;-63
2023/10/30 07:27:36;;;;;;;23.00;8.30;;;;;;;12.49;64.55;101293.13;107540;1256;111739;-60
2023/10/30 07:30:08;;;;;;;35.60;8.10;;;;;;;12.69;64.27;101291.36;107448;1251;109906;-61
2023/10/30 07:32:36;;;;;;;32.20;7.10;;;;;;;12.90;64.09;101295.42;107529;1251;107113;-58
2023/10/30 07:35:06;;;;;;;20.30;7.60;;;;;;;13.11;63.78;101293.36;107511;1251;97845;-61
2023/10/30 07:37:35;;;;;;;19.90;6.00;;;;;;;13.32;63.11;101292.70;107491;1256;97879;-61
2023/10/30 07:40:05;;;;;;;18.70;6.20;;;;;;;13.52;62.95;101291.44;107427;1254;111269;-61
2023/10/30 07:42:33;;;;;;;27.80;9.10;;;;;;;13.73;62.60;101291.48;107453;1251;108438;-61
2023/10/30 07:45:02;;;;;;;26.60;8.70;;;;;;;13.96;62.31;101295.98;107449;1257;108317;-63
2023/10/30 07:47:30;;;;;;;18.90;6.70;;;;;;;14.21;61.91;101293.45;107484;1256;97897;-61
2023/10/30 07:50:11;;;;;;;29.20;8.00;;;;;;;14.43;61.33;101300.94;107483;1255;98345;-62
2023/10/30 07:52:40;;;;;;;23.40;7.30;;;;;;;14.61;60.38;101298.12;107487;1257;111227;-61
2023/10/30 07:55:10;;;;;;;31.80;8.50;;;;;;;14.81;60.12;101295.45;107510;1251;110006;-62
2023/10/30 07:57:39;;;;;;;18.50;7.50;;;;;;;15.02;59.57;101291.05;107444;1257;107428;-61
2023/10/30 08:00:08;;;;;;;20.60;6.90;;;;;;;15.22;59.47;101283.70;107495;1251;98436;-60
2023/10/30 08:02:45;;;;;;;33.10;9.80;;;;;;;15.46;59.23;101278.23;107530;1251;98405;-61
2023/10/30 08:05:15;;;;;;;37.40;12.70;;;;;;;15.67;58.42;101268.67;107539;1251;111922;-60
2023/10/30 08:07:47;;;;;;;34.80;14.20;;;;;;;15.89;57.53;101262.61;107467;1251;108181;-61
2023/10/30 08:10:15;;;;;;;43.20;11.60;;;;;;;16.14;56.76;101258.94;107463;1251;107240;-60
2023/10/30 08:12:44;;;;;;;24.10;7.90;;;;;;;16.42;55.56;101258.45;107385;1255;97818;-61
2023/10/30 08:15:12;;;;;;;40.60;14.00;;;;;;;16.70;54.22;101258.47;107589;1257;97740;-62
2023/10/30 08:17:41;;;;;;;27.60;9.00;;;;;;;16.94;53.78;101261.23;107542;1256;112906;-61
2023/10/30 08:20:11;;;;;;;32.30;9.30;;;;;;;17.13;53.41;101259.16;107539;1255;109945;-61
2023/10/30 08:22:41;;;;;;;30.60;10.80;;;;;;;17.36;53.41;101256.73;107513;1253;108430;-61
2023/10/30 08:25:09;;;;;;;19.50;7.30;;;;;;;17.58;52.61;101250.48;107473;1254;98048;-61
2023/10/30 08:27:37;;;;;;;21.10;7.90;;;;;;;17.86;52.12;101253.68;107513;1256;98145;-61
2023/10/30 08:30:07;;;;;;;21.50;7.90;;;;;;;18.14;51.69;101254.59;107499;1252;111412;-61
2023/10/30 08:32:37;;;;;;;30.80;9.10;;;;;;;18.39;51.39;101247.58;107563;1251;110214;-61
2023/10/30 08:35:06;;;;;;;39.70;10.30;;;;;;;18.66;50.46;101242.85;107510;1251;107429;-62
2023/10/30 08:37:34;;;;;;;23.20;7.00;;;;;;;18.92;50.08;101241.36;107492;1253;97846;-60
2023/10/30 08:40:03;;;;;;;27.10;6.20;;;;;;;19.23;49.94;101236.29;107484;1256;98405;-61
2023/10/30 08:42:32;;;;;;;19.30;6.50;;;;;;;19.53;48.61;101234.30;107631;1251;111557;-61
2023/10/30 08:45:01;;;;;;;30.10;7.40;;;;;;;19.90;47.49;101232.95;107442;1254;109793;-62
2023/10/30 08:47:29;;;;;;;29.60;6.20;;;;;;;20.43;46.74;101229.30;107466;1251;107426;-62
2023/10/30 08:49:59;;;;;;;21.00;6.20;;;;;;;21.11;42.81;101223.15;107469;1251;98205;-61
2023/10/30 08:52:27;;;;;;;13.90;5.30;;;;;;;21.86;41.49;101231.71;107545;1251;98395;-61
2023/10/30 08:54:56;;;;;;;19.20;4.90;;;;;;;22.76;40.59;101226.29;107488;1253;110905;-61
2023/10/30 08:57:24;;;;;;;11.90;4.20;;;;;;;23.65;36.53;101222.84;107503;1254;110787;-62
2023/10/30 08:59:52;;;;;;;9.60;4.10;;;;;;;24.44;34.71;101224.88;107485;1254;108427;-62
2023/10/30 09:02:21;;;;;;;15.80;5.50;;;;;;;25.19;34.90;101217.77;107484;1254;97808;-61
2023/10/30 09:04:52;;;;;;;14.50;5.10;;;;;;;25.93;32.68;101213.71;107311;1254;96957;-61
2023/10/30 09:07:21;;;;;;;16.10;4.60;;;;;;;26.52;30.82;101207.76;107510;1253;111944;-61
2023/10/30 09:09:49;;;;;;;13.20;4.40;;;;;;;27.09;29.55;101212.70;107377;1254;110054;-61
2023/10/30 09:12:18;;;;;;;13.10;4.30;;;;;;;27.62;28.66;101208.41;107494;1251;108324;-61
2023/10/30 09:14:47;;;;;;;9.10;4.50;;;;;;;28.10;28.04;101205.66;107471;1255;97825;-62
2023/10/30 09:17:15;;;;;;;14.00;5.00;;;;;;;28.51;27.78;101206.09;107544;1251;97962;-62
2023/10/30 09:19:43;;;;;;;6.70;3.80;;;;;;;29.00;26.20;101205.83;107513;1254;111041;-61
2023/10/30 09:22:12;;;;;;;14.90;4.70;;;;;;;29.31;26.30;101202.92;107548;1251;109170;-61
2023/10/30 09:24:40;;;;;;;13.20;4.30;;;;;;;29.68;25.86;101202.46;107456;1255;107734;-62
2023/10/30 09:27:09;;;;;;;7.40;3.60;;;;;;;30.08;23.92;101197.13;107529;1256;97935;-62
2023/10/30 09:29:38;;;;;;;9.90;4.30;;;;;;;30.26;23.93;101194.23;107555;1251;98489;-61
2023/10/30 09:32:07;;;;;;;6.50;2.90;;;;;;;30.55;23.69;101185.54;107521;1255;111817;-63
2023/10/30 09:34:36;;;;;;;17.60;3.40;;;;;;;30.85;23.68;101183.13;107489;1251;109281;-62
2023/10/30 09:37:04;;;;;;;14.90;4.20;;;;;;;31.09;23.59;101171.71;107551;1256;107673;-62
2023/10/30 09:39:32;;;;;;;8.30;3.80;;;;;;;31.17;22.30;101173.89;107529;1251;97708;-62
2023/10/30 09:42:02;;;;;;;8.40;3.30;;;;;;;31.57;20.84;101171.04;107494;1251;98469;-62
2023/10/30 09:44:31;;;;;;;16.30;3.50;;;;;;;31.78;20.29;101180.46;107518;1251;111620;-63
2023/10/30 09:47:02;;;;;;;10.20;3.90;;;;;;;31.87;19.55;101181.58;107557;1251;109682;-61
2023/10/30 09:49:32;;;;;;;10.10;3.90;;;;;;;31.86;20.52;101176.12;107420;1253;108746;-60
2023/10/30 09:52:04;;;;;;;19.10;3.60;;;;;;;32.08;19.94;101174.71;107473;1254;97714;-62
2023/10/30 09:54:33;;;;;;;9.40;3.00;;;;;;;32.18;19.82;101171.92;107594;1251;98360;-61
2023/10/30 09:57:03;;;;;;;14.50;3.60;;;;;;;32.41;20.32;101168.29;107549;1251;112317;-62
2023/10/30 09:59:33;;;;;;;12.80;3.30;;;;;;;32.82;19.06;101158.98;107570;1254;109589;-62
2023/10/30 10:02:01;;;;;;;8.90;3.80;;;;;;;32.93;19.20;101155.81;107548;1251;107994;-63
2023/10/30 10:04:31;;;;;;;9.30;3.00;;;;;;;33.13;19.71;101152.14;107514;1251;97870;-62
2023/10/30 10:07:00;;;;;;;10.20;3.80;;;;;;;33.48;18.98;101151.39;107502;1251;98390;-61
2023/10/30 10:09:28;;;;;;;9.50;3.50;;;;;;;33.40;18.95;101148.89;107559;1251;112057;-62
2023/10/30 10:11:57;;;;;;;9.70;3.30;;;;;;;33.58;18.62;101149.76;107127;1253;422552;-63
2023/10/30 10:14:30;;;;;;;8.70;3.60;;;;;;;33.40;18.42;101146.61;107502;1254;107512;-62
2023/10/30 10:17:00;;;;;;;12.20;4.10;;;;;;;33.34;18.49;101140.76;107548;1251;97851;-62
2023/10/30 10:19:34;;;;;;;9.50;3.70;;;;;;;33.25;18.90;101137.13;107506;1253;97745;-62
2023/10/30 10:22:03;;;;;;;10.50;4.00;;;;;;;33.36;19.08;101134.91;107572;1254;111974;-62
2023/10/30 10:24:37;;;;;;;10.60;3.30;;;;;;;33.66;18.90;101131.98;107598;1254;109831;-62
2023/10/30 10:27:06;;;;;;;11.40;3.60;;;;;;;33.90;18.96;101125.11;107529;1254;107877;-62
2023/10/30 10:29:35;;;;;;;15.80;4.00;;;;;;;34.37;17.77;101133.84;107520;1254;97921;-62
2023/10/30 10:32:05;;;;;;;10.70;3.60;;;;;;;34.20;17.62;101126.48;107538;1254;98384;-62
2023/10/30 10:34:33;;;;;;;11.90;3.20;;;;;;;34.20;18.33;101121.96;107555;1254;110735;-62
2023/10/30 10:37:02;;;;;;;8.90;3.60;;;;;;;34.62;17.62;101115.64;107412;1251;109674;-62
2023/10/30 10:39:47;;;;;;;11.30;3.40;;;;;;;34.71;17.63;101111.77;107470;1251;107604;-62
2023/10/30 10:42:19;;;;;;;10.00;3.40;;;;;;;34.14;17.64;101115.41;107537;1251;97940;-62
2023/10/30 10:44:51;;;;;;;7.40;3.00;;;;;;;33.85;17.93;101099.52;107603;1251;97846;-62
2023/10/30 10:47:20;;;;;;;9.80;3.00;;;;;;;33.54;17.77;101094.15;107584;1251;111963;-61
2023/10/30 10:49:50;;;;;;;9.40;2.90;;;;;;;33.25;18.44;101091.02;107594;1251;109780;-60
2023/10/30 10:52:19;;;;;;;6.20;2.30;;;;;;;33.30;18.38;101086.33;107516;1256;107953;-61
2023/10/30 10:55:02;;;;;;;5.70;2.90;;;;;;;33.89;18.38;101083.48;107455;1251;97865;-62
2023/10/30 10:58:23;;;;;;;5.20;2.50;;;;;;;34.16;17.35;101098.53;107653;1254;98364;-61
2023/10/30 11:00:56;;;;;;;7.00;1.90;;;;;;;34.57;17.52;101094.99;107486;1251;111850;-62
2023/10/30 11:03:25;;;;;;;4.90;1.80;;;;;;;35.00;16.58;101090.92;107598;1251;109997;-66
2023/10/30 11:05:54;;;;;;;5.50;2.20;;;;;;;34.94;17.27;101088.35;107612;1251;108511;-62
2023/10/30 11:08:41;;;;;;;6.80;2.60;;;;;;;35.16;16.92;101089.77;107616;1251;97841;-62
2023/10/30 11:11:17;;;;;;;4.50;1.90;;;;;;;35.19;16.34;101087.55;107615;1255;98994;-61
2023/10/30 11:14:24;;;;;;;5.10;2.10;;;;;;;35.13;16.38;101089.96;107652;1251;111835;-61
2023/10/30 11:17:02;;;;;;;7.60;1.60;;;;;;;34.64;16.67;101091.25;107615;1256;110094;-62
2023/10/30 11:19:37;;;;;;;7.90;2.20;;;;;;;34.15;17.39;101086.71;107601;1254;107797;-61
2023/10/30 11:22:05;;;;;;;6.60;2.00;;;;;;;34.20;16.49;101092.04;107568;1251;97935;-61